createdAt,value
2019-04-23T00:01:02.999Z,4.10
2019-04-23T00:03:21.505Z,3.93
2019-04-23T00:05:59.870Z,3.17
2019-04-23T00:08:39.716Z,3.47
2019-04-23T00:10:58.893Z,3.70
2019-04-23T00:13:24.141Z,3.50
2019-04-23T00:16:07.528Z,2.80
2019-04-23T00:18:30.187Z,4.10
2019-04-23T00:20:58.111Z,3.97
2019-04-23T00:23:25.838Z,3.90
2019-04-23T00:31:04.409Z,3.90
2019-04-23T00:33:30.203Z,3.20
2019-04-23T00:35:55.090Z,3.70
2019-04-23T00:38:36.548Z,2.97
2019-04-23T00:40:59.516Z,3.50
2019-04-23T00:43:48.540Z,4.07
2019-04-23T00:45:54.952Z,3.17
2019-04-23T00:48:36.411Z,3.60
2019-04-23T00:50:59.053Z,3.30
2019-04-23T00:53:29.662Z,3.77
2019-04-23T00:56:11.588Z,3.43
2019-04-23T00:58:38.102Z,3.90
2019-04-23T01:01:00.334Z,3.73
2019-04-23T01:03:25.413Z,3.90
2019-04-23T01:06:00.583Z,3.50
2019-04-23T01:08:33.144Z,3.80
2019-04-23T01:11:13.369Z,4.07
2019-04-23T01:13:44.283Z,3.40
2019-04-23T01:16:09.973Z,3.20
2019-04-23T01:18:51.325Z,3.00
2019-04-23T01:21:01.249Z,3.47
2019-04-23T01:23:54.468Z,2.80
2019-04-23T01:26:37.578Z,2.93
2019-04-23T01:29:14.531Z,3.47
2019-04-23T01:31:47.505Z,3.70
2019-04-23T01:34:20.110Z,3.40
2019-04-23T01:36:50.316Z,3.90
2019-04-23T01:41:47.889Z,3.83
2019-04-23T01:44:26.826Z,3.77
2019-04-23T01:46:51.003Z,3.40
2019-04-23T01:49:23.155Z,3.17
2019-04-23T01:52:01.762Z,3.40
2019-04-23T01:54:18.466Z,3.10
2019-04-23T01:56:43.456Z,3.53
2019-04-23T01:59:20.091Z,3.80
2019-04-23T02:04:24.416Z,3.90
2019-04-23T02:06:45.787Z,3.10
2019-04-23T02:09:17.281Z,4.10
2019-04-23T02:11:50.694Z,3.60
2019-04-23T02:14:20.955Z,4.33
2019-04-23T02:16:49.965Z,3.33
2019-04-23T02:19:26.975Z,3.43
2019-04-23T02:24:24.726Z,4.10
2019-04-23T02:27:05.453Z,3.70
2019-04-23T02:29:36.147Z,3.03
2019-04-23T02:32:09.084Z,3.90
2019-04-23T02:34:47.158Z,2.97
2019-04-23T02:37:00.603Z,4.03
2019-04-23T02:39:39.743Z,3.63
2019-04-23T02:42:30.707Z,4.00
2019-04-23T02:44:32.331Z,3.57
2019-04-23T02:47:12.605Z,4.03
2019-04-23T02:52:10.995Z,3.87
2019-04-23T02:57:13.444Z,3.90
2019-04-23T02:59:58.253Z,4.27
2019-04-23T03:02:28.387Z,4.43
2019-04-23T03:04:57.080Z,3.80
2019-04-23T03:09:45.199Z,3.73
2019-04-23T03:12:31.381Z,4.30
2019-04-23T03:14:50.566Z,4.30
2019-04-23T03:17:31.029Z,4.20
2019-04-23T03:20:16.683Z,3.50
2019-04-23T03:23:03.069Z,4.10
2019-04-23T03:25:49.684Z,4.00
2019-04-23T03:27:55.940Z,4.70
2019-04-23T03:32:34.157Z,5.23
2019-04-23T03:38:32.124Z,4.60
2019-04-23T03:40:50.438Z,4.67
2019-04-23T03:50:41.668Z,4.33
2019-04-23T03:53:25.681Z,4.20
2019-04-23T03:55:56.242Z,4.77
2019-04-23T03:58:21.196Z,4.60
2019-04-23T04:08:18.071Z,5.33
2019-04-23T04:11:04.215Z,4.60
2019-04-23T04:15:57.065Z,4.87
2019-04-23T04:18:33.120Z,4.50
2019-04-23T04:26:00.777Z,4.17
2019-04-23T04:30:49.245Z,5.00
2019-04-23T04:33:51.126Z,4.40
2019-04-23T04:35:58.453Z,4.70
2019-04-23T04:38:36.683Z,4.97
2019-04-23T04:41:03.444Z,5.70
2019-04-23T04:43:31.826Z,4.53
2019-04-23T04:48:22.987Z,5.53
2019-04-23T04:51:03.416Z,4.53
2019-04-23T04:56:12.420Z,5.23
2019-04-23T05:03:26.968Z,4.90
2019-04-23T05:08:29.138Z,5.17
2019-04-23T05:11:04.675Z,4.87
2019-04-23T05:15:58.099Z,5.80
2019-04-23T05:18:47.446Z,4.53
2019-04-23T05:21:14.457Z,4.90
2019-04-23T05:23:54.338Z,4.57
2019-04-23T05:26:17.376Z,4.70
2019-04-23T05:28:51.624Z,5.87
2019-04-23T05:31:14.098Z,4.90
2019-04-23T05:33:46.403Z,5.43
2019-04-23T05:36:20.853Z,5.07
2019-04-23T05:38:50.378Z,5.57
2019-04-23T05:41:21.972Z,4.30
2019-04-23T05:43:57.989Z,5.40
2019-04-23T05:49:04.549Z,5.63
2019-04-23T05:54:08.479Z,5.43
2019-04-23T05:56:38.547Z,6.07
2019-04-23T05:59:17.760Z,4.90
2019-04-23T06:04:24.803Z,5.20
2019-04-23T06:09:30.475Z,5.93
2019-04-23T06:12:21.507Z,5.67
2019-04-23T06:14:45.760Z,5.70
2019-04-23T06:17:19.734Z,5.47
2019-04-23T06:19:56.755Z,6.30
2019-04-23T06:25:04.285Z,5.93
2019-04-23T06:27:32.404Z,7.23
2019-04-23T06:30:01.006Z,6.03
2019-04-23T06:32:37.719Z,6.73
2019-04-23T06:35:19.102Z,5.53
2019-04-23T06:38:19.809Z,6.07
2019-04-23T06:40:22.219Z,6.00
2019-04-23T06:43:15.056Z,5.17
2019-04-23T06:45:46.014Z,6.33
2019-04-23T06:51:02.401Z,5.90
2019-04-23T06:53:27.196Z,6.53
2019-04-23T06:56:04.474Z,5.87
2019-04-23T06:58:37.503Z,6.03
2019-04-23T07:01:09.711Z,6.33
2019-04-23T07:03:51.956Z,5.93
2019-04-23T07:06:23.559Z,5.90
2019-04-23T07:09:10.697Z,5.80
2019-04-23T07:11:33.832Z,5.20
2019-04-23T07:16:32.850Z,5.77
2019-04-23T07:19:18.598Z,5.80
2019-04-23T07:21:41.822Z,5.93
2019-04-23T07:24:33.138Z,6.33
2019-04-23T07:26:42.487Z,5.63
2019-04-23T07:29:25.773Z,5.10
2019-04-23T07:34:32.010Z,5.70
2019-04-23T07:37:08.768Z,6.30
2019-04-23T07:40:09.647Z,7.07
2019-04-23T07:43:02.945Z,6.37
2019-04-23T07:45:26.089Z,5.50
2019-04-23T07:55:58.963Z,5.50
2019-04-23T08:00:56.771Z,5.13
2019-04-23T08:03:36.531Z,5.40
2019-04-23T08:06:07.491Z,5.93
2019-04-23T08:08:43.299Z,6.60
2019-04-23T08:14:00.557Z,6.00
2019-04-23T08:18:58.989Z,5.93
2019-04-23T08:21:33.446Z,6.57
2019-04-23T08:24:10.264Z,6.60
2019-04-23T08:29:28.050Z,6.60
2019-04-23T08:32:09.083Z,6.00
2019-04-23T08:37:15.059Z,6.03
2019-04-23T08:45:10.541Z,6.30
2019-04-23T08:50:08.453Z,6.20
2019-04-23T08:52:39.530Z,5.63
2019-04-23T08:57:45.187Z,7.20
2019-04-23T09:00:23.153Z,4.57
2019-04-23T09:03:14.696Z,6.27
2019-04-23T09:05:41.516Z,4.83
2019-04-23T09:08:17.212Z,5.57
2019-04-23T09:10:41.161Z,5.27
2019-04-23T09:13:36.328Z,8.87
2019-04-23T09:18:20.981Z,5.87
2019-04-23T09:20:49.702Z,5.00
2019-04-23T09:23:35.107Z,5.30
2019-04-23T09:26:03.130Z,4.87
2019-04-23T09:28:41.961Z,5.13
2019-04-23T09:33:51.746Z,5.33
2019-04-23T09:36:33.687Z,5.00
2019-04-23T09:39:08.498Z,4.87
2019-04-23T09:41:43.528Z,5.80
2019-04-23T09:44:42.591Z,5.63
2019-04-23T09:47:00.678Z,5.50
2019-04-23T09:49:44.367Z,5.70
2019-04-23T09:52:02.538Z,4.90
2019-04-23T09:54:32.569Z,6.13
2019-04-23T09:57:10.566Z,5.90
2019-04-23T09:59:43.150Z,6.07
2019-04-23T10:02:06.717Z,6.03
2019-04-23T10:04:39.835Z,6.23
2019-04-23T10:07:05.518Z,5.30
2019-04-23T10:09:34.128Z,5.63
2019-04-23T10:12:07.161Z,5.10
2019-04-23T10:14:38.684Z,6.00
2019-04-23T10:17:10.515Z,5.63
2019-04-23T10:19:44.690Z,5.03
2019-04-23T10:22:13.219Z,6.20
2019-04-23T10:24:43.567Z,4.80
2019-04-23T10:27:12.808Z,5.53
2019-04-23T10:29:47.873Z,6.17
2019-04-23T10:32:21.767Z,5.60
2019-04-23T10:35:06.808Z,5.20
2019-04-23T10:37:46.085Z,5.13
2019-04-23T10:40:12.026Z,5.70
2019-04-23T10:42:40.928Z,6.30
2019-04-23T10:45:30.144Z,5.80
2019-04-23T10:48:33.068Z,6.00
2019-04-23T10:51:25.067Z,5.23
2019-04-23T10:53:52.070Z,5.37
2019-04-23T10:56:34.727Z,5.10
2019-04-23T10:58:54.623Z,4.90
2019-04-23T11:01:39.140Z,5.43
2019-04-23T11:04:21.454Z,5.40
2019-04-23T11:09:35.723Z,5.60
2019-04-23T11:11:52.622Z,5.60
2019-04-23T11:14:31.077Z,5.73
2019-04-23T11:17:21.531Z,5.10
2019-04-23T11:19:42.539Z,5.10
2019-04-23T11:22:33.242Z,5.00
2019-04-23T11:25:12.109Z,5.13
2019-04-23T11:27:26.111Z,5.03
2019-04-23T11:30:05.611Z,5.97
2019-04-23T11:37:40.932Z,5.37
2019-04-23T11:40:08.775Z,5.70
2019-04-23T11:42:42.688Z,6.40
2019-04-23T11:45:26.086Z,5.73
2019-04-23T11:50:39.692Z,5.60
2019-04-23T11:52:54.503Z,6.50
2019-04-23T11:58:23.653Z,6.10
2019-04-23T12:01:00.834Z,5.20
2019-04-23T12:03:41.900Z,5.97
2019-04-23T12:05:56.049Z,6.13
2019-04-23T12:08:34.951Z,7.93
2019-04-23T12:11:36.312Z,5.50
2019-04-23T12:13:37.912Z,6.50
2019-04-23T12:16:10.585Z,4.80
2019-04-23T12:18:45.776Z,5.70
2019-04-23T12:21:13.061Z,6.20
2019-04-23T12:24:12.256Z,5.97
2019-04-23T12:26:31.405Z,5.40
2019-04-23T12:28:59.064Z,6.43
2019-04-23T12:31:32.596Z,6.00
2019-04-23T12:36:45.485Z,6.13
2019-04-23T12:39:27.554Z,5.50
2019-04-23T12:42:12.740Z,8.13
2019-04-23T12:44:38.559Z,5.70
2019-04-23T12:47:18.799Z,5.57
2019-04-23T12:52:19.705Z,5.47
2019-04-23T12:54:59.077Z,6.80
2019-04-23T12:57:32.697Z,5.00
2019-04-23T12:59:58.424Z,5.90
2019-04-23T13:02:40.235Z,6.07
2019-04-23T13:05:25.901Z,5.80
2019-04-23T13:10:14.746Z,6.90
2019-04-23T13:12:50.356Z,5.43
2019-04-23T13:15:22.582Z,5.83
2019-04-23T13:17:55.846Z,6.17
2019-04-23T13:20:27.959Z,5.97
2019-04-23T13:28:12.983Z,5.53
2019-04-23T13:30:54.849Z,5.60
2019-04-23T13:33:28.252Z,6.10
2019-04-23T13:38:37.955Z,6.70
2019-04-23T13:43:40.611Z,5.80
2019-04-23T13:46:21.774Z,5.77
2019-04-23T13:48:42.311Z,6.87
2019-04-23T13:51:32.632Z,4.67
2019-04-23T13:53:55.748Z,5.77
2019-04-23T13:57:13.011Z,5.17
2019-04-23T13:59:04.800Z,5.67
2019-04-23T14:01:39.993Z,6.03
2019-04-23T14:04:30.827Z,5.70
2019-04-23T14:06:43.549Z,5.27
2019-04-23T14:09:31.971Z,5.87
2019-04-23T14:11:45.215Z,5.60
2019-04-23T14:14:41.726Z,5.47
2019-04-23T14:17:08.771Z,5.83
2019-04-23T14:19:38.304Z,5.33
2019-04-23T14:24:59.391Z,5.40
2019-04-23T14:27:20.054Z,5.80
2019-04-23T14:29:56.539Z,4.93
2019-04-23T14:32:29.446Z,5.37
2019-04-23T14:35:18.573Z,5.37
2019-04-23T14:37:43.332Z,5.10
2019-04-23T14:40:21.911Z,5.00
2019-04-23T14:43:00.086Z,5.20
2019-04-23T14:45:29.619Z,5.50
2019-04-23T14:48:02.735Z,5.83
2019-04-23T14:50:32.274Z,4.77
2019-04-23T14:52:56.832Z,5.00
2019-04-23T14:58:00.869Z,5.70
2019-04-23T15:00:29.217Z,5.70
2019-04-23T15:03:00.228Z,4.70
2019-04-23T15:05:23.748Z,5.23
2019-04-23T15:07:58.438Z,5.70
2019-04-23T15:10:24.813Z,5.40
2019-04-23T15:15:27.030Z,4.93
2019-04-23T15:17:56.177Z,4.97
2019-04-23T15:28:06.819Z,5.17
2019-04-23T15:30:23.100Z,5.50
2019-04-23T15:33:21.913Z,6.07
2019-04-23T15:35:53.377Z,5.67
2019-04-23T15:38:24.790Z,5.30
2019-04-23T15:40:26.908Z,5.40
2019-04-23T15:43:05.861Z,4.73
2019-04-23T15:45:32.677Z,5.53
2019-04-23T15:48:08.543Z,5.87
2019-04-23T15:50:46.294Z,5.00
2019-04-23T15:53:01.429Z,4.83
2019-04-23T15:55:27.505Z,6.27
2019-04-23T15:58:08.427Z,7.47
2019-04-23T16:00:31.375Z,6.60
2019-04-23T16:02:32.478Z,5.10
2019-04-23T16:05:00.895Z,5.33
2019-04-23T16:07:48.566Z,5.00
2019-04-23T16:10:47.593Z,5.40
2019-04-23T16:13:02.922Z,4.93
2019-04-23T16:15:29.212Z,5.60
2019-04-23T16:18:07.898Z,4.90
2019-04-23T16:20:39.183Z,5.30
2019-04-23T16:22:55.245Z,6.20
2019-04-23T16:25:27.931Z,5.30
2019-04-23T16:28:03.660Z,4.77
2019-04-23T16:30:38.209Z,5.40
2019-04-23T16:35:59.474Z,6.17
2019-04-23T16:38:32.261Z,5.77
2019-04-23T16:45:45.935Z,5.37
2019-04-23T16:48:23.877Z,5.73
2019-04-23T16:51:01.479Z,6.23
2019-04-23T16:53:22.784Z,5.50
2019-04-23T16:56:04.238Z,4.67
2019-04-23T16:58:21.867Z,5.47
2019-04-23T17:01:02.536Z,5.53
2019-04-23T17:05:56.847Z,4.90
2019-04-23T17:11:00.039Z,4.80
2019-04-23T17:13:21.023Z,6.13
2019-04-23T17:18:24.616Z,5.50
2019-04-23T17:20:51.801Z,5.83
2019-04-23T17:23:34.473Z,6.30
2019-04-23T17:25:59.190Z,6.03
2019-04-23T17:28:21.889Z,5.73
2019-04-23T17:31:06.975Z,5.97
2019-04-23T17:33:41.707Z,6.00
2019-04-23T17:38:42.927Z,6.53
2019-04-23T17:41:32.340Z,6.13
2019-04-23T17:44:10.014Z,5.97
2019-04-23T17:46:37.365Z,5.50
2019-04-23T17:51:31.276Z,6.30
2019-04-23T17:54:13.981Z,6.40
2019-04-23T17:56:47.688Z,6.93
2019-04-23T17:59:14.098Z,7.60
2019-04-23T18:01:56.997Z,6.87
2019-04-23T18:04:36.649Z,6.90
2019-04-23T18:06:51.618Z,5.93
2019-04-23T18:14:15.163Z,6.93
2019-04-23T18:24:36.516Z,6.93
2019-04-23T18:30:01.084Z,5.67
2019-04-23T18:33:12.498Z,5.10
2019-04-23T18:35:16.992Z,4.90
2019-04-23T18:37:34.467Z,6.77
2019-04-23T18:39:59.228Z,5.33
2019-04-23T18:42:41.315Z,5.20
2019-04-23T18:45:06.120Z,7.13
2019-04-23T18:47:44.028Z,5.30
2019-04-23T18:50:10.340Z,6.40
2019-04-23T18:55:19.139Z,5.90
2019-04-23T18:57:40.338Z,5.63
2019-04-23T19:00:21.394Z,6.20
2019-04-23T19:08:10.199Z,5.40
2019-04-23T19:13:11.090Z,5.27
2019-04-23T19:15:42.312Z,6.50
2019-04-23T19:23:16.396Z,7.50
2019-04-23T19:28:23.572Z,5.40
2019-04-23T19:31:06.253Z,6.83
2019-04-23T19:33:32.898Z,5.77
2019-04-23T19:36:05.070Z,5.30
2019-04-23T19:38:30.161Z,6.07
2019-04-23T19:43:26.404Z,6.37
2019-04-23T19:46:11.054Z,5.90
2019-04-23T19:48:27.016Z,7.30
2019-04-23T19:50:55.490Z,6.50
2019-04-23T19:53:32.347Z,6.83
2019-04-23T19:56:03.879Z,6.40
2019-04-23T19:58:34.568Z,6.97
2019-04-23T20:01:11.794Z,6.53
2019-04-23T20:10:54.392Z,6.10
2019-04-23T20:13:31.449Z,7.23
2019-04-23T20:18:42.769Z,6.63
2019-04-23T20:21:00.878Z,6.30
2019-04-23T20:23:48.845Z,7.50
2019-04-23T20:29:11.878Z,7.20
2019-04-23T20:32:25.672Z,6.30
2019-04-23T20:34:24.400Z,6.83
2019-04-23T20:36:40.131Z,6.70
2019-04-23T20:54:43.200Z,7.17
2019-04-23T20:57:26.172Z,5.73
2019-04-23T20:59:56.785Z,7.20
2019-04-23T21:02:39.704Z,6.70
2019-04-23T21:05:10.200Z,7.67
2019-04-23T21:07:28.271Z,5.80
2019-04-23T21:10:08.845Z,6.23
2019-04-23T21:12:43.100Z,6.73
2019-04-23T21:15:05.378Z,7.80
2019-04-23T21:17:40.228Z,6.37
2019-04-23T21:22:32.008Z,7.53
2019-04-23T21:24:51.722Z,6.30
2019-04-23T21:27:46.640Z,6.50
2019-04-23T21:32:42.357Z,7.80
2019-04-23T21:35:07.923Z,5.80
2019-04-23T21:37:42.849Z,7.27
2019-04-23T21:43:09.476Z,6.57
2019-04-23T21:45:40.792Z,7.17
2019-04-23T21:48:13.253Z,6.40
2019-04-23T21:50:43.305Z,6.00
2019-04-23T21:53:10.064Z,6.63
2019-04-23T21:55:48.429Z,7.00
2019-04-23T21:58:17.304Z,7.40
2019-04-23T22:00:48.461Z,6.70
2019-04-23T22:03:17.916Z,7.40
2019-04-23T22:05:42.407Z,6.20
2019-04-23T22:10:49.339Z,6.67
2019-04-23T22:13:41.585Z,7.23
2019-04-23T22:15:58.325Z,6.33
2019-04-23T22:18:07.049Z,7.57
2019-04-23T22:20:51.333Z,7.57
2019-04-23T22:23:11.053Z,7.60
2019-04-23T22:25:48.631Z,6.63
2019-04-23T22:28:18.138Z,7.20
2019-04-23T22:30:54.966Z,6.50
2019-04-23T22:33:18.359Z,6.70
2019-04-23T22:35:57.745Z,6.50
2019-04-23T22:38:18.749Z,6.93
2019-04-23T22:40:49.730Z,6.50
2019-04-23T22:43:38.440Z,8.07
2019-04-23T22:45:52.472Z,6.27
2019-04-23T22:48:20.621Z,7.03
2019-04-23T22:50:57.470Z,6.30
2019-04-23T22:53:10.922Z,7.23
2019-04-23T22:56:03.209Z,6.33
2019-04-23T22:58:12.218Z,7.00
2019-04-23T23:01:14.687Z,7.33
2019-04-23T23:03:42.247Z,8.27
2019-04-23T23:08:43.688Z,7.13
2019-04-23T23:13:52.221Z,6.80
2019-04-23T23:16:21.385Z,7.03
2019-04-23T23:18:53.798Z,6.30
2019-04-23T23:23:43.946Z,7.40
2019-04-23T23:26:20.319Z,7.00
2019-04-23T23:28:42.510Z,7.50
2019-04-23T23:36:17.249Z,8.03
2019-04-23T23:38:57.409Z,7.43
2019-04-23T23:48:50.812Z,6.80
2019-04-23T23:53:57.157Z,6.60
2019-04-23T23:56:32.329Z,6.13
